Franklin, NJ (07416)

10:01 AM EST on November 27, 2014 (GMT -0500)
KNJFRANK2 | Change Station
CLOSE
Current Station
Personal Weather Station
Location: Franklin, NJ
Elevation: 571 ft
Nearby Weather Stations

Elev 571 ft 41.12 °N, 74.59 °W | Updated 1 minute ago

Snow
Snow
32.8 °F
Feels Like 33 °F
N
0.0
Wind Variable Wind from North
Gusts 0.0 mph

Today
High -- | Low -- °F
--% Chance of Precip.
Yesterday
High -- | Low -- °F
Precip. -- in
6:59 AM 4:31 PM
Waxing Crescent, 30% visible
Pressure 30.01 in
Visibility 3.0 miles
Clouds Scattered Clouds 4000 ft
Overcast 4900 ft
Windchill 33 °F
Dew Point 32 °F
Humidity 96%
Rainfall 0.00 in
Snow Depth Not available.
UV 1 out of 12
Pollen .10 out of 12
Air Quality Not available.
Flu Activity Not available.
METAR KFWN 271453Z AUTO 00000KT 3SM -SN BR SCT040 OVC049 01/M01 A2999 RMK AO2 SLP160 P0000 60001 T00061011 51015

More Conditions Fewer Conditions

Pressure 30.01 in
Visibility 3.0 miles
Clouds Scattered Clouds 4000 ft
Overcast 4900 ft
Windchill 33 °F
Dew Point 32 °F
Humidity 96%
Rainfall 0.00 in
Snow Depth Not available.
UV 1 out of 12
Pollen .10 out of 12
Air Quality Not available.
Flu Activity Not available.
METAR KFWN 271453Z AUTO 00000KT 3SM -SN BR SCT040 OVC049 01/M01 A2999 RMK AO2 SLP160 P0000 60001 T00061011 51015

More Conditions Fewer Conditions

Nowcast | as of 9:57 am EST on November 27, 2014

An area of light snow will continue to affect portions of northeastern Pennsylvania, as well as northern and central New Jersey. Little to no snow accumulations is expected for most areas, although a light dusting may occur with the heaviest showers.

×

10-Day Weather Forecast

Almanac

Astronomy

Nov. 27, 2014 Rise Set
Actual Time
Civil Twilight
Nautical Twilight
Astronomical Twilight
Moon
Length of Visible Light
Length of Day
Tomorrow will be .
, % of the Moon is Illuminated

Today's Extremes

State Highs State Lows

Community

WunderPhotos

Upload Photos

1,774,009 photos uploaded!

WunderBlogs® & News

Nearby

Air Quality

  Air Quality AQ Index Pollutant
Not available.

Snow Depth

Station Depth Elevation

Earthquake Activity

City Distance Mag. Time & Date
Minimum magnitude displayed is 2.5.

Coastal Water Temperatures

Place Temperature

Nearby Weather Stations